createdAt,value
2022-08-17T00:00:05.660Z,21.55
2022-08-17T00:03:07.160Z,24.75
2022-08-17T00:05:41.960Z,14.40
2022-08-17T00:08:11.955Z,12.55
2022-08-17T00:10:40.802Z,15.68
2022-08-17T00:13:10.661Z,15.82
2022-08-17T00:15:37.926Z,13.50
2022-08-17T00:19:00.979Z,17.17
2022-08-17T00:20:54.746Z,17.13
2022-08-17T00:23:23.181Z,19.10
2022-08-17T00:25:50.591Z,22.00
2022-08-17T00:28:19.491Z,18.25
2022-08-17T00:30:51.208Z,27.40
2022-08-17T00:33:27.217Z,19.80
2022-08-17T00:35:55.798Z,25.38
2022-08-17T00:38:24.023Z,19.17
2022-08-17T00:40:55.953Z,31.80
2022-08-17T00:43:42.396Z,27.10
2022-08-17T00:46:13.637Z,43.80
2022-08-17T00:48:41.973Z,43.10
2022-08-17T00:51:23.275Z,34.65
2022-08-17T00:53:56.291Z,39.53
2022-08-17T00:56:33.079Z,24.67
2022-08-17T00:59:02.262Z,25.17
2022-08-17T01:01:30.179Z,37.78
2022-08-17T01:03:59.868Z,43.25
2022-08-17T01:06:29.149Z,42.28
2022-08-17T01:08:58.087Z,88.15
2022-08-17T01:11:25.681Z,93.63
2022-08-17T01:13:52.588Z,108.00
2022-08-17T01:16:24.494Z,89.75
2022-08-17T01:18:54.859Z,74.55
2022-08-17T01:21:43.830Z,98.40
2022-08-17T01:24:10.736Z,69.70
2022-08-17T01:26:40.648Z,59.00
2022-08-17T01:29:07.944Z,86.03
2022-08-17T01:31:42.437Z,87.47
2022-08-17T01:34:11.519Z,58.10
2022-08-17T01:36:41.544Z,71.20
2022-08-17T01:39:16.063Z,91.93
2022-08-17T01:41:46.072Z,96.47
2022-08-17T01:44:15.739Z,94.85
2022-08-17T01:46:42.692Z,75.53
2022-08-17T01:49:11.703Z,64.70
2022-08-17T01:51:39.434Z,65.50
2022-08-17T01:54:14.820Z,87.72
2022-08-17T01:56:47.079Z,79.73
2022-08-17T01:59:16.286Z,96.10
2022-08-17T02:01:44.125Z,79.63
2022-08-17T02:04:11.871Z,105.85
2022-08-17T02:06:52.930Z,80.30
2022-08-17T02:09:25.940Z,132.35
2022-08-17T02:11:56.318Z,115.82
2022-08-17T02:14:24.701Z,83.07
2022-08-17T02:16:51.835Z,98.60
2022-08-17T02:19:19.456Z,104.37
2022-08-17T02:21:50.822Z,76.53
2022-08-17T02:24:58.356Z,91.82
2022-08-17T02:27:15.755Z,130.38
2022-08-17T02:29:42.573Z,86.38
2022-08-17T02:32:28.216Z,82.88
2022-08-17T02:34:59.160Z,108.38
2022-08-17T02:37:27.740Z,105.90
2022-08-17T02:39:56.813Z,87.88
2022-08-17T02:42:33.804Z,115.03
2022-08-17T02:45:01.703Z,99.03
2022-08-17T02:47:28.633Z,104.78
2022-08-17T02:49:56.179Z,74.15
2022-08-17T02:52:43.492Z,88.55
2022-08-17T02:55:17.903Z,89.47
2022-08-17T02:57:45.643Z,77.22
2022-08-17T03:00:19.466Z,89.22
2022-08-17T03:02:48.646Z,80.32
2022-08-17T03:05:18.245Z,93.60
2022-08-17T03:07:45.411Z,93.28
2022-08-17T03:10:12.903Z,94.03
2022-08-17T03:12:42.179Z,88.13
2022-08-17T03:15:21.657Z,79.93
2022-08-17T03:17:52.310Z,87.15
2022-08-17T03:20:20.498Z,101.95
2022-08-17T03:22:53.276Z,101.40
2022-08-17T03:25:32.788Z,97.55
2022-08-17T03:28:03.128Z,93.80
2022-08-17T03:30:30.323Z,107.50
2022-08-17T03:33:00.025Z,111.57
2022-08-17T03:35:30.224Z,117.57
2022-08-17T03:38:00.725Z,92.37
2022-08-17T03:40:55.482Z,114.50
2022-08-17T03:43:18.416Z,117.73
2022-08-17T03:46:29.010Z,110.90
2022-08-17T03:49:26.219Z,143.32
2022-08-17T03:52:13.136Z,117.68
2022-08-17T03:54:59.799Z,127.55
2022-08-17T03:57:27.526Z,152.73
2022-08-17T03:59:55.267Z,159.20
2022-08-17T04:02:29.906Z,140.75
2022-08-17T04:04:57.484Z,159.35
2022-08-17T04:07:27.428Z,134.85
2022-08-17T04:09:54.334Z,143.50
2022-08-17T04:12:23.951Z,126.45
2022-08-17T04:14:53.562Z,142.38
2022-08-17T04:17:27.121Z,150.70
2022-08-17T04:19:55.902Z,143.90
2022-08-17T04:22:30.424Z,125.03
2022-08-17T04:25:15.586Z,167.70
2022-08-17T04:27:43.578Z,145.52
2022-08-17T04:30:12.409Z,132.17
2022-08-17T04:33:05.746Z,124.90
2022-08-17T04:35:55.638Z,146.90
2022-08-17T04:38:28.338Z,147.47
2022-08-17T04:41:15.516Z,145.90
2022-08-17T04:43:44.784Z,164.00
2022-08-17T04:46:14.585Z,153.15
2022-08-17T04:48:50.195Z,158.32
2022-08-17T04:51:54.442Z,157.85
2022-08-17T04:54:22.242Z,140.20
2022-08-17T04:56:49.263Z,140.00
2022-08-17T04:59:21.295Z,132.05
2022-08-17T05:01:50.722Z,175.13
2022-08-17T05:04:34.263Z,149.20
2022-08-17T05:07:03.111Z,174.02
2022-08-17T05:09:29.887Z,163.52
2022-08-17T05:12:02.129Z,154.90
2022-08-17T05:14:33.182Z,136.88
2022-08-17T05:17:01.397Z,161.90
2022-08-17T05:19:28.903Z,148.10
2022-08-17T05:21:55.878Z,143.30
2022-08-17T05:24:42.467Z,170.77
2022-08-17T05:27:09.557Z,164.23
2022-08-17T05:29:44.702Z,160.97
2022-08-17T05:32:38.089Z,110.85
2022-08-17T05:35:00.725Z,132.32
2022-08-17T05:37:27.799Z,136.87
2022-08-17T05:39:54.771Z,138.73
2022-08-17T05:42:22.214Z,147.27
2022-08-17T05:44:48.943Z,147.88
2022-08-17T05:47:16.245Z,177.18
2022-08-17T05:49:43.047Z,162.20
2022-08-17T05:52:31.562Z,157.55
2022-08-17T05:55:17.694Z,177.23
2022-08-17T05:58:16.762Z,97.03
2022-08-17T06:01:07.700Z,94.20
2022-08-17T06:03:53.766Z,88.07
2022-08-17T06:06:35.143Z,133.52
2022-08-17T06:09:47.237Z,158.90
2022-08-17T06:12:29.043Z,149.55
2022-08-17T06:15:19.410Z,137.00
2022-08-17T06:17:46.672Z,167.15
2022-08-17T06:20:15.995Z,152.50
2022-08-17T06:22:49.349Z,174.10
2022-08-17T06:25:39.394Z,180.85
2022-08-17T06:28:13.969Z,174.63
2022-08-17T06:31:00.303Z,174.10
2022-08-17T06:33:35.096Z,163.13
2022-08-17T06:36:16.115Z,194.15
2022-08-17T06:39:09.189Z,183.13
2022-08-17T06:42:09.524Z,167.80
2022-08-17T06:45:20.041Z,179.30
2022-08-17T06:48:18.764Z,184.80
2022-08-17T06:50:54.454Z,161.38
2022-08-17T06:53:36.134Z,196.00
2022-08-17T06:56:12.837Z,194.95
2022-08-17T06:58:44.071Z,181.63
2022-08-17T07:01:16.634Z,189.67
2022-08-17T07:03:57.195Z,218.20
2022-08-17T07:06:29.333Z,221.68
2022-08-17T07:09:02.380Z,207.77
2022-08-17T07:11:43.447Z,261.65
2022-08-17T07:14:25.275Z,280.65
2022-08-17T07:16:54.834Z,280.23
2022-08-17T07:19:25.261Z,307.95
2022-08-17T07:21:56.056Z,213.23
2022-08-17T07:24:51.436Z,176.25
2022-08-17T07:27:25.045Z,212.63
2022-08-17T07:29:57.659Z,175.88
2022-08-17T07:32:31.735Z,186.05
2022-08-17T07:35:13.045Z,182.82
2022-08-17T07:37:53.190Z,190.07
2022-08-17T07:40:27.080Z,184.23
2022-08-17T07:43:09.233Z,186.40
2022-08-17T07:46:18.183Z,153.55
2022-08-17T07:48:52.175Z,148.50
2022-08-17T07:51:27.845Z,188.82
2022-08-17T07:54:13.451Z,166.13
2022-08-17T07:56:41.099Z,168.73
2022-08-17T07:59:23.935Z,186.15
2022-08-17T08:01:57.994Z,191.20
2022-08-17T08:05:06.499Z,197.30
2022-08-17T08:07:58.132Z,190.57
2022-08-17T08:10:42.811Z,199.63
2022-08-17T08:13:21.995Z,193.13
2022-08-17T08:15:52.971Z,210.23
2022-08-17T08:18:54.818Z,194.93
2022-08-17T08:21:48.465Z,190.05
2022-08-17T08:24:41.020Z,182.40
2022-08-17T08:27:27.122Z,189.32
2022-08-17T08:30:08.005Z,223.45
2022-08-17T08:32:50.216Z,296.77
2022-08-17T08:35:33.696Z,202.77
2022-08-17T08:38:37.975Z,250.50
2022-08-17T08:41:23.348Z,231.60
2022-08-17T08:43:53.426Z,205.18
2022-08-17T08:46:59.914Z,184.75
2022-08-17T08:50:05.591Z,194.40
2022-08-17T08:52:58.703Z,206.27
2022-08-17T08:55:47.403Z,213.23
2022-08-17T08:58:51.800Z,196.75
2022-08-17T09:01:38.020Z,184.18
2022-08-17T09:05:10.557Z,179.67
2022-08-17T09:07:38.304Z,141.90
2022-08-17T09:10:25.931Z,155.23
2022-08-17T09:12:59.607Z,153.70
2022-08-17T09:15:33.656Z,142.27
2022-08-17T09:18:59.291Z,142.18
2022-08-17T09:21:05.864Z,160.48
2022-08-17T09:23:38.854Z,151.47
2022-08-17T09:26:25.500Z,112.55
2022-08-17T09:28:55.876Z,137.45
2022-08-17T09:31:33.221Z,127.67
2022-08-17T09:34:05.355Z,126.10
2022-08-17T09:36:40.530Z,109.13
2022-08-17T09:39:19.991Z,123.13
2022-08-17T09:42:00.481Z,119.38
2022-08-17T09:44:39.586Z,120.68
2022-08-17T09:47:32.528Z,103.05
2022-08-17T09:51:04.094Z,118.97
2022-08-17T09:53:09.314Z,104.93
2022-08-17T09:56:14.730Z,107.40
2022-08-17T09:59:00.546Z,112.57
2022-08-17T10:01:48.594Z,126.45
2022-08-17T10:04:33.698Z,49.92
2022-08-17T10:07:26.025Z,43.38
2022-08-17T10:10:14.538Z,52.33
2022-08-17T10:13:05.114Z,51.00
2022-08-17T10:15:42.494Z,27.45
2022-08-17T10:18:33.104Z,25.80
2022-08-17T10:21:33.376Z,27.10
2022-08-17T10:24:40.536Z,25.00
2022-08-17T10:27:52.326Z,30.15
2022-08-17T10:30:24.589Z,39.30
2022-08-17T10:33:05.791Z,32.22
2022-08-17T10:35:36.326Z,32.63
2022-08-17T10:38:15.328Z,39.67
2022-08-17T10:40:51.626Z,48.20
2022-08-17T10:44:38.631Z,72.85
2022-08-17T10:46:52.011Z,58.85
2022-08-17T10:49:18.821Z,57.65
2022-08-17T10:51:48.916Z,87.45
2022-08-17T10:54:24.513Z,78.60
2022-08-17T10:56:54.172Z,79.63
2022-08-17T10:59:44.156Z,105.32
2022-08-17T11:02:19.791Z,94.25
2022-08-17T11:05:08.256Z,116.15
2022-08-17T11:07:59.736Z,93.13
2022-08-17T11:11:04.416Z,97.30
2022-08-17T11:13:46.375Z,68.95
2022-08-17T11:16:59.302Z,84.47
2022-08-17T11:19:32.162Z,104.13
2022-08-17T11:22:33.320Z,98.88
2022-08-17T11:25:15.729Z,60.72
2022-08-17T11:27:44.180Z,45.65
2022-08-17T11:30:15.397Z,41.83
2022-08-17T11:32:54.491Z,68.85
2022-08-17T11:35:21.897Z,45.17
2022-08-17T11:38:15.854Z,38.58
2022-08-17T11:41:13.928Z,54.78
2022-08-17T11:43:49.615Z,36.30
2022-08-17T11:47:17.968Z,29.08
2022-08-17T11:50:35.643Z,28.58
2022-08-17T11:53:03.294Z,33.90
2022-08-17T11:55:37.535Z,36.17
2022-08-17T11:58:26.307Z,28.20
2022-08-17T12:00:57.104Z,32.58
2022-08-17T12:03:33.460Z,43.40
2022-08-17T12:06:24.018Z,28.17
2022-08-17T12:09:11.539Z,25.08
2022-08-17T12:11:55.101Z,30.15
2022-08-17T12:15:05.904Z,36.38
2022-08-17T12:17:39.298Z,30.77
2022-08-17T12:20:24.023Z,33.72
2022-08-17T12:23:19.401Z,19.10
2022-08-17T12:26:07.745Z,15.95
2022-08-17T12:28:39.051Z,15.10
2022-08-17T12:31:34.316Z,19.47
2022-08-17T12:34:04.387Z,14.25
2022-08-17T12:36:33.102Z,14.07
2022-08-17T12:39:14.387Z,13.30
2022-08-17T12:41:47.904Z,13.50
2022-08-17T12:44:34.015Z,15.20
2022-08-17T12:47:19.373Z,14.10
2022-08-17T12:49:51.327Z,15.43
2022-08-17T12:52:30.719Z,13.52
2022-08-17T12:55:06.169Z,13.23
2022-08-17T12:57:40.964Z,13.10
2022-08-17T13:00:17.569Z,12.63
2022-08-17T13:02:48.531Z,15.98
2022-08-17T13:05:23.888Z,15.00
2022-08-17T13:07:53.432Z,15.27
2022-08-17T13:10:28.630Z,14.77
2022-08-17T13:13:03.694Z,12.67
2022-08-17T13:15:44.693Z,13.82
2022-08-17T13:18:36.490Z,12.07
2022-08-17T13:21:05.079Z,12.90
2022-08-17T13:23:32.759Z,13.45
2022-08-17T13:26:06.119Z,13.23
2022-08-17T13:28:36.337Z,12.75
2022-08-17T13:31:44.040Z,11.87
2022-08-17T13:34:34.569Z,11.88
2022-08-17T13:37:32.341Z,13.07
2022-08-17T13:40:11.232Z,11.70
2022-08-17T13:42:54.133Z,11.68
2022-08-17T13:45:36.605Z,12.85
2022-08-17T13:48:27.968Z,11.35
2022-08-17T13:50:54.703Z,12.32
2022-08-17T13:53:50.461Z,11.63
2022-08-17T13:56:39.583Z,12.27
2022-08-17T13:59:13.615Z,12.07
2022-08-17T14:01:53.483Z,12.23
2022-08-17T14:04:24.379Z,12.55
2022-08-17T14:07:01.721Z,12.20
2022-08-17T14:09:37.157Z,11.48
2022-08-17T14:12:10.547Z,10.95
2022-08-17T14:14:38.316Z,11.18
2022-08-17T14:17:05.509Z,10.73
2022-08-17T14:19:34.924Z,10.45
2022-08-17T14:22:02.808Z,10.75
2022-08-17T14:24:39.994Z,9.88
2022-08-17T14:27:09.849Z,9.85
2022-08-17T14:29:37.278Z,10.85
2022-08-17T14:32:14.263Z,9.43
2022-08-17T14:34:41.067Z,9.13
2022-08-17T14:37:08.348Z,9.27
2022-08-17T14:39:35.163Z,10.20
2022-08-17T14:42:02.097Z,8.45
2022-08-17T14:44:29.900Z,9.50
2022-08-17T14:46:56.654Z,9.73
2022-08-17T14:49:25.840Z,10.82
2022-08-17T14:51:53.871Z,8.57
2022-08-17T14:54:34.145Z,8.27
2022-08-17T14:57:22.507Z,8.40
2022-08-17T14:59:54.429Z,8.05
2022-08-17T15:02:29.866Z,8.10
2022-08-17T15:05:02.538Z,9.82
2022-08-17T15:07:31.398Z,9.33
2022-08-17T15:10:01.351Z,8.38
2022-08-17T15:12:33.248Z,8.73
2022-08-17T15:15:04.502Z,8.88
2022-08-17T15:17:44.553Z,8.70
2022-08-17T15:20:27.839Z,9.45
2022-08-17T15:22:58.747Z,9.00
2022-08-17T15:25:29.381Z,8.38
2022-08-17T15:27:57.069Z,9.30
2022-08-17T15:30:26.577Z,11.05
2022-08-17T15:32:57.276Z,11.10
2022-08-17T15:35:29.387Z,10.05
2022-08-17T15:37:58.351Z,10.45
2022-08-17T15:40:25.449Z,10.57
2022-08-17T15:42:53.767Z,10.98
2022-08-17T15:45:24.766Z,11.70
2022-08-17T15:47:52.662Z,11.35
2022-08-17T15:50:21.262Z,11.32
2022-08-17T15:52:55.529Z,11.00
2022-08-17T15:55:25.412Z,12.88
2022-08-17T15:57:53.902Z,12.05
2022-08-17T16:00:22.538Z,11.63
2022-08-17T16:03:15.422Z,10.95
2022-08-17T16:05:37.738Z,11.87
2022-08-17T16:08:10.897Z,15.02
2022-08-17T16:10:39.403Z,13.17
2022-08-17T16:13:17.560Z,13.07
2022-08-17T16:15:51.064Z,12.18
2022-08-17T16:18:28.272Z,16.92
2022-08-17T16:20:55.777Z,12.13
2022-08-17T16:23:25.137Z,12.57
2022-08-17T16:25:54.255Z,11.98
2022-08-17T16:28:35.750Z,14.10
2022-08-17T16:31:05.823Z,15.00
2022-08-17T16:33:37.849Z,14.98
2022-08-17T16:36:09.929Z,13.13
2022-08-17T16:38:38.561Z,12.93
2022-08-17T16:41:06.130Z,16.00
2022-08-17T16:43:34.853Z,14.80
2022-08-17T16:46:02.693Z,13.85
2022-08-17T16:48:31.066Z,12.48
2022-08-17T16:51:03.789Z,15.98
2022-08-17T16:53:31.977Z,14.52
2022-08-17T16:56:00.289Z,13.43
2022-08-17T16:58:29.046Z,14.25
2022-08-17T17:00:59.470Z,13.85
2022-08-17T17:03:30.795Z,11.45
2022-08-17T17:06:25.485Z,11.00
2022-08-17T17:09:02.274Z,10.60
2022-08-17T17:11:45.597Z,10.65
2022-08-17T17:14:21.074Z,9.57
2022-08-17T17:16:59.569Z,9.85
2022-08-17T17:19:56.851Z,9.90
2022-08-17T17:22:30.067Z,9.48
2022-08-17T17:25:27.548Z,9.50
2022-08-17T17:28:14.865Z,9.50
2022-08-17T17:31:08.193Z,9.83
2022-08-17T17:33:53.270Z,10.00
2022-08-17T17:36:50.703Z,10.17
2022-08-17T17:39:43.746Z,9.68
2022-08-17T17:42:28.239Z,10.32
2022-08-17T17:45:00.144Z,10.18
2022-08-17T17:47:29.575Z,10.20
2022-08-17T17:49:56.670Z,10.63
2022-08-17T17:53:02.034Z,10.05
2022-08-17T17:55:56.122Z,10.25
2022-08-17T17:58:38.676Z,10.88
2022-08-17T18:01:27.357Z,12.63
2022-08-17T18:03:56.765Z,11.67
2022-08-17T18:06:30.276Z,12.55
2022-08-17T18:09:23.658Z,10.95
2022-08-17T18:11:51.719Z,11.70
2022-08-17T18:14:22.015Z,12.30
2022-08-17T18:16:55.349Z,12.13
2022-08-17T18:19:25.600Z,12.52
2022-08-17T18:22:02.149Z,13.38
2022-08-17T18:24:36.069Z,13.15
2022-08-17T18:27:27.190Z,12.48
2022-08-17T18:29:57.878Z,13.03
2022-08-17T18:32:34.961Z,13.47
2022-08-17T18:35:08.758Z,12.77
2022-08-17T18:37:41.231Z,12.63
2022-08-17T18:40:19.941Z,13.57
2022-08-17T18:43:21.989Z,13.68
2022-08-17T18:45:53.648Z,13.75
2022-08-17T18:48:52.687Z,13.65
2022-08-17T18:51:40.990Z,12.68
2022-08-17T18:54:22.858Z,13.90
2022-08-17T18:56:50.136Z,14.07
2022-08-17T18:59:31.337Z,16.65
2022-08-17T19:02:22.106Z,14.55
2022-08-17T19:05:24.853Z,17.83
2022-08-17T19:07:53.252Z,17.98
2022-08-17T19:10:46.330Z,15.68
2022-08-17T19:13:24.267Z,15.07
2022-08-17T19:16:12.216Z,15.98
2022-08-17T19:19:04.579Z,19.73
2022-08-17T19:21:37.136Z,16.70
2022-08-17T19:24:19.604Z,18.23
2022-08-17T19:27:07.941Z,15.55
2022-08-17T19:30:06.970Z,15.48
2022-08-17T19:32:37.891Z,15.43
2022-08-17T19:35:07.361Z,16.13
2022-08-17T19:38:23.410Z,15.98
2022-08-17T19:41:13.925Z,16.50
2022-08-17T19:43:55.504Z,17.52
2022-08-17T19:46:50.657Z,15.53
2022-08-17T19:49:46.614Z,17.40
2022-08-17T19:52:39.549Z,16.95
2022-08-17T19:55:20.789Z,18.52
2022-08-17T19:57:51.258Z,16.80
2022-08-17T20:00:19.905Z,16.10
2022-08-17T20:02:47.177Z,17.85
2022-08-17T20:05:23.977Z,18.67
2022-08-17T20:07:51.545Z,17.83
2022-08-17T20:10:38.684Z,17.20
2022-08-17T20:13:15.030Z,18.25
2022-08-17T20:15:47.527Z,16.58
2022-08-17T20:18:43.985Z,19.50
2022-08-17T20:21:41.411Z,17.17
2022-08-17T20:24:25.065Z,20.15
2022-08-17T20:27:08.892Z,20.73
2022-08-17T20:29:55.268Z,22.08
2022-08-17T20:32:31.069Z,17.35
2022-08-17T20:35:22.477Z,19.90
2022-08-17T20:37:57.368Z,21.15
2022-08-17T20:40:28.475Z,18.20
2022-08-17T20:42:56.120Z,17.90
2022-08-17T20:45:26.340Z,19.08
2022-08-17T20:48:35.659Z,16.90
2022-08-17T20:50:55.966Z,19.50
2022-08-17T20:53:47.764Z,15.77
2022-08-17T20:56:43.248Z,16.30
2022-08-17T20:59:31.570Z,15.57
2022-08-17T21:02:18.100Z,14.70
2022-08-17T21:04:48.758Z,15.45
2022-08-17T21:07:51.959Z,16.13
2022-08-17T21:10:32.343Z,13.98
2022-08-17T21:13:15.591Z,14.50
2022-08-17T21:15:55.417Z,16.92
2022-08-17T21:18:49.434Z,13.52
2022-08-17T21:21:19.310Z,14.70
2022-08-17T21:24:19.280Z,14.27
2022-08-17T21:26:55.524Z,16.10
2022-08-17T21:29:31.912Z,14.32
2022-08-17T21:32:02.658Z,14.98
2022-08-17T21:34:30.459Z,13.85
2022-08-17T21:37:20.179Z,15.02
2022-08-17T21:39:59.035Z,17.02
2022-08-17T21:42:34.415Z,14.75
2022-08-17T21:45:11.306Z,15.65
2022-08-17T21:47:45.158Z,16.27
2022-08-17T21:50:25.061Z,13.80
2022-08-17T21:52:55.996Z,13.90
2022-08-17T21:55:29.617Z,13.55
2022-08-17T21:58:14.147Z,14.65
2022-08-17T22:00:44.478Z,13.40
2022-08-17T22:03:24.281Z,14.87
2022-08-17T22:05:51.741Z,13.75
2022-08-17T22:08:22.541Z,14.65
2022-08-17T22:10:59.252Z,14.00
2022-08-17T22:13:26.776Z,14.15
2022-08-17T22:16:28.658Z,13.13
2022-08-17T22:18:58.602Z,13.10
2022-08-17T22:21:27.282Z,14.25
2022-08-17T22:24:15.405Z,12.50
2022-08-17T22:27:05.821Z,14.10
2022-08-17T22:29:59.247Z,14.10
2022-08-17T22:32:35.039Z,13.93
2022-08-17T22:35:26.871Z,13.07
2022-08-17T22:37:53.977Z,13.88
2022-08-17T22:40:30.544Z,12.63
2022-08-17T22:43:00.605Z,12.80
2022-08-17T22:45:30.385Z,12.45
2022-08-17T22:48:00.541Z,14.45
2022-08-17T22:50:30.373Z,13.90
2022-08-17T22:53:20.654Z,16.20
2022-08-17T22:56:10.910Z,12.25
2022-08-17T22:59:18.067Z,12.20
2022-08-17T23:02:11.665Z,14.10
2022-08-17T23:04:47.728Z,14.00
2022-08-17T23:07:17.517Z,16.35
2022-08-17T23:09:45.856Z,14.38
2022-08-17T23:12:17.734Z,15.80
2022-08-17T23:14:46.918Z,13.90
2022-08-17T23:17:14.330Z,17.02
2022-08-17T23:19:41.640Z,19.03
2022-08-17T23:22:10.835Z,13.18
2022-08-17T23:24:50.386Z,15.70
2022-08-17T23:27:19.850Z,13.30
2022-08-17T23:29:49.515Z,11.60
2022-08-17T23:32:18.436Z,14.37
2022-08-17T23:34:47.720Z,15.02
2022-08-17T23:37:17.573Z,12.73
2022-08-17T23:39:45.446Z,13.48
2022-08-17T23:42:16.309Z,13.70
2022-08-17T23:44:43.889Z,14.55
2022-08-17T23:47:11.421Z,13.95
2022-08-17T23:49:39.114Z,14.27
2022-08-17T23:52:09.893Z,15.70
2022-08-17T23:54:46.561Z,18.45
2022-08-17T23:57:20.242Z,13.20
